Time;durP1;ratioP1;P1;durP2;ratioP2;P2;SDS_P1;SDS_P2;PMS_P1;PMS_P2;Temp;Humidity;BMP_temperature;BMP_pressure;BME280_temperature;BME280_humidity;BME280_pressure;Samples;Min_cycle;Max_cycle;Signal;HPM_P1;HPM_P2
2023/08/18 00:01:34;;;;;;;13.75;8.55;;;;;;;16.82;100.00;101221.94;5062300;28;20106;-89
2023/08/18 00:04:01;;;;;;;10.20;7.68;;;;;;;16.84;100.00;101220.09;5062426;28;20506;-86
2023/08/18 00:06:28;;;;;;;7.63;6.75;;;;;;;16.85;100.00;101219.19;5047911;28;20043;-86
2023/08/18 00:08:55;;;;;;;12.00;7.97;;;;;;;16.85;100.00;101217.41;5058450;28;20037;-86
2023/08/18 00:11:22;;;;;;;11.73;8.88;;;;;;;16.84;100.00;101218.34;5064423;28;20113;-90
2023/08/18 00:13:48;;;;;;;12.50;8.85;;;;;;;16.85;100.00;101213.91;5040164;28;20052;-87
2023/08/18 00:16:15;;;;;;;8.40;7.40;;;;;;;16.86;100.00;101211.22;5059696;28;20040;-86
2023/08/18 00:18:42;;;;;;;14.20;9.13;;;;;;;16.86;100.00;101205.06;5058108;28;20041;-85
2023/08/18 00:21:09;;;;;;;14.85;10.30;;;;;;;16.86;100.00;101202.41;5063766;28;20044;-89
2023/08/18 00:23:36;;;;;;;10.35;9.23;;;;;;;16.84;100.00;101194.53;5060200;28;20048;-86
2023/08/18 00:26:03;;;;;;;12.30;9.15;;;;;;;16.86;100.00;101197.13;5062568;28;20134;-85
2023/08/18 00:28:33;;;;;;;9.48;8.15;;;;;;;16.83;100.00;101192.78;5055256;28;20044;-86
2023/08/18 00:30:59;;;;;;;15.07;10.98;;;;;;;16.81;100.00;101188.44;5061767;28;20051;-88
2023/08/18 00:33:26;;;;;;;15.05;8.98;;;;;;;16.78;100.00;101189.41;5053398;28;20068;-86
2023/08/18 00:35:53;;;;;;;13.50;10.73;;;;;;;16.76;100.00;101182.41;5054529;28;20563;-91
2023/08/18 00:38:20;;;;;;;11.85;8.45;;;;;;;16.75;100.00;101183.31;5065253;28;20063;-88
2023/08/18 00:40:46;;;;;;;7.75;6.93;;;;;;;16.76;100.00;101174.47;5062067;28;20052;-87
2023/08/18 00:43:13;;;;;;;8.63;7.25;;;;;;;16.79;100.00;101182.31;5073790;28;21208;-85
2023/08/18 00:45:40;;;;;;;10.95;9.77;;;;;;;16.75;100.00;101176.28;5056508;28;20102;-84
2023/08/18 00:48:07;;;;;;;13.20;8.70;;;;;;;16.72;100.00;101178.97;5061971;28;20048;-84
2023/08/18 00:50:35;;;;;;;11.55;7.72;;;;;;;16.72;100.00;101186.91;5047569;28;20480;-86
2023/08/18 00:53:02;;;;;;;10.18;8.07;;;;;;;16.75;100.00;101175.38;5054632;28;20070;-84
2023/08/18 00:55:30;;;;;;;11.98;9.93;;;;;;;16.75;100.00;101176.28;5060459;28;20485;-90
2023/08/18 00:57:57;;;;;;;7.97;7.20;;;;;;;16.78;100.00;101177.94;5065642;28;20041;-85
2023/08/18 01:00:29;;;;;;;7.95;7.15;;;;;;;16.81;100.00;101183.16;5048601;28;20057;-86
2023/08/18 01:02:56;;;;;;;10.48;8.52;;;;;;;16.81;100.00;101181.38;5041899;28;20870;-84
2023/08/18 01:05:23;;;;;;;14.55;10.27;;;;;;;16.82;100.00;101184.91;5045937;28;20122;-86
2023/08/18 01:07:50;;;;;;;14.38;9.35;;;;;;;16.81;100.00;101181.38;5061664;28;20128;-87
2023/08/18 01:10:17;;;;;;;10.90;8.32;;;;;;;16.81;100.00;101176.09;5048920;28;20741;-87
2023/08/18 01:13:12;;;;;;;9.93;8.70;;;;;;;16.82;100.00;101177.84;5058148;28;20048;-84
2023/08/18 01:15:46;;;;;;;12.05;9.93;;;;;;;16.82;100.00;101175.19;5047438;28;20450;-85
2023/08/18 01:18:14;;;;;;;14.13;8.98;;;;;;;16.84;100.00;101169.84;5065454;28;20484;-85
2023/08/18 01:20:41;;;;;;;9.15;7.18;;;;;;;16.81;100.00;101176.09;5049502;28;20437;-89
2023/08/18 01:23:10;;;;;;;15.32;9.82;;;;;;;16.81;100.00;101165.50;5040524;28;20047;-86
2023/08/18 01:25:37;;;;;;;12.35;10.10;;;;;;;16.81;100.00;101170.81;5060634;28;20051;-86
2023/08/18 01:28:06;;;;;;;15.35;9.40;;;;;;;16.80;100.00;101173.50;5032999;28;20476;-86
2023/08/18 01:30:52;;;;;;;15.75;10.55;;;;;;;16.79;100.00;101177.03;5078482;28;20072;-88
2023/08/18 01:33:55;;;;;;;11.10;9.60;;;;;;;16.77;100.00;101176.22;5058657;28;20670;-85
2023/08/18 01:36:29;;;;;;;10.13;8.90;;;;;;;16.77;100.00;101178.88;5039373;28;20053;-86
2023/08/18 01:38:56;;;;;;;13.95;10.90;;;;;;;16.76;100.00;101171.84;5045897;28;20063;-90
2023/08/18 01:41:25;;;;;;;15.85;10.77;;;;;;;16.71;100.00;101179.88;5039865;28;20059;-88
2023/08/18 01:43:53;;;;;;;15.27;9.77;;;;;;;16.73;100.00;101179.88;5062048;28;20041;-89
2023/08/18 01:46:20;;;;;;;15.48;9.95;;;;;;;16.74;100.00;101179.81;5064414;28;20051;-89
2023/08/18 01:48:46;;;;;;;12.23;9.63;;;;;;;16.75;100.00;101181.56;5060272;28;20052;-86
2023/08/18 01:51:13;;;;;;;14.30;9.95;;;;;;;16.75;100.00;101170.09;5060061;28;20127;-85
2023/08/18 01:53:39;;;;;;;10.57;9.35;;;;;;;16.78;100.00;101164.72;5055930;28;20045;-88
2023/08/18 01:56:06;;;;;;;9.48;7.93;;;;;;;16.80;100.00;101169.06;5058702;28;20048;-86
2023/08/18 01:58:33;;;;;;;12.70;9.23;;;;;;;16.79;100.00;101172.63;5043644;28;20053;-89
2023/08/18 02:01:00;;;;;;;12.27;9.88;;;;;;;16.79;100.00;101172.63;5048221;28;20071;-90
2023/08/18 02:03:27;;;;;;;16.15;12.90;;;;;;;16.78;100.00;101160.31;5047887;28;20146;-87
2023/08/18 02:05:56;;;;;;;19.10;13.82;;;;;;;16.74;100.00;101150.75;5057221;28;20037;-87
2023/08/18 02:08:22;;;;;;;20.05;13.48;;;;;;;16.69;100.00;101163.22;5046991;28;20106;-86
2023/08/18 02:10:49;;;;;;;15.38;11.82;;;;;;;16.68;100.00;101167.59;5041013;28;20069;-86
2023/08/18 02:13:16;;;;;;;14.82;12.13;;;;;;;16.69;100.00;101158.78;5057345;28;20159;-91
2023/08/18 02:15:47;;;;;;;23.77;13.85;;;;;;;16.69;100.00;101160.56;5040306;28;20409;-87
2023/08/18 02:18:17;;;;;;;13.13;11.63;;;;;;;16.68;100.00;101162.31;5071672;28;20041;-86
2023/08/18 02:20:44;;;;;;;12.90;9.82;;;;;;;16.70;100.00;101159.66;5065932;28;20048;-88
2023/08/18 02:23:11;;;;;;;20.10;12.45;;;;;;;16.72;100.00;101162.25;5065457;28;20053;-86
2023/08/18 02:25:37;;;;;;;18.30;13.00;;;;;;;16.68;100.00;101157.03;5066600;28;20098;-88
2023/08/18 02:28:04;;;;;;;21.55;13.80;;;;;;;16.69;100.00;101139.41;5062479;28;20040;-88
2023/08/18 02:30:31;;;;;;;14.07;10.90;;;;;;;16.66;100.00;101137.72;5071247;28;20036;-90
2023/08/18 02:32:58;;;;;;;19.40;11.55;;;;;;;16.65;100.00;101135.97;5050243;28;20070;-91
2023/08/18 02:35:25;;;;;;;15.60;11.68;;;;;;;16.65;100.00;101135.97;5060653;28;20103;-88
2023/08/18 02:37:51;;;;;;;20.27;12.95;;;;;;;16.63;100.00;101137.78;5059232;28;20053;-84
2023/08/18 02:40:18;;;;;;;18.38;13.15;;;;;;;16.62;100.00;101137.84;5064452;28;20059;-86
2023/08/18 02:42:48;;;;;;;20.50;12.82;;;;;;;16.62;100.00;101136.06;5060830;28;20052;-92
2023/08/18 02:45:15;;;;;;;15.55;12.32;;;;;;;16.60;100.00;101122.03;5055542;28;20147;-87
2023/08/18 02:47:45;;;;;;;21.25;13.88;;;;;;;16.59;100.00;101130.84;5048775;28;20052;-88
2023/08/18 02:50:12;;;;;;;22.67;14.02;;;;;;;16.57;100.00;101122.13;5084221;28;20052;-85
2023/08/18 02:52:39;;;;;;;19.48;14.82;;;;;;;16.56;100.00;101120.38;5052467;28;20036;-89
2023/08/18 02:55:07;;;;;;;14.90;10.70;;;;;;;16.56;100.00;101124.78;5069385;28;20083;-88
2023/08/18 02:57:33;;;;;;;20.23;13.70;;;;;;;16.58;100.00;101128.25;5056220;28;20231;-88
2023/08/18 03:00:00;;;;;;;21.77;13.93;;;;;;;16.57;100.00;101126.50;5062139;28;20048;-87
2023/08/18 03:02:27;;;;;;;21.63;14.93;;;;;;;16.56;100.00;101130.94;5056430;28;20048;-85
2023/08/18 03:04:54;;;;;;;18.58;13.25;;;;;;;16.55;100.00;101131.84;5043671;28;20033;-88
2023/08/18 03:07:20;;;;;;;24.85;16.13;;;;;;;16.53;100.00;101121.31;5063549;28;20102;-86
2023/08/18 03:09:47;;;;;;;24.42;17.30;;;;;;;16.52;100.00;101132.78;5072571;28;20524;-88
2023/08/18 03:12:15;;;;;;;19.27;14.02;;;;;;;16.49;100.00;101127.59;5060789;28;20036;-86
2023/08/18 03:14:42;;;;;;;23.65;14.32;;;;;;;16.47;100.00;101126.75;5064887;28;20056;-85
2023/08/18 03:17:12;;;;;;;21.88;15.15;;;;;;;16.44;100.00;101134.78;5063446;28;20135;-87
2023/08/18 03:19:39;;;;;;;18.90;12.90;;;;;;;16.43;100.00;101130.38;5055524;28;20428;-89
2023/08/18 03:22:05;;;;;;;25.63;15.63;;;;;;;16.43;100.00;101134.81;5042476;28;20132;-84
2023/08/18 03:24:32;;;;;;;21.52;13.40;;;;;;;16.41;100.00;101131.34;5062486;28;20044;-88
2023/08/18 03:27:01;;;;;;;22.17;14.77;;;;;;;16.40;100.00;101134.88;5060800;28;20783;-88
2023/08/18 03:29:30;;;;;;;29.23;17.77;;;;;;;16.36;100.00;101134.09;5063574;28;20055;-90
2023/08/18 03:31:57;;;;;;;28.13;16.23;;;;;;;16.34;100.00;101135.91;5056184;28;20041;-85
2023/08/18 03:34:27;;;;;;;24.60;14.15;;;;;;;16.34;100.00;101138.56;5074137;28;20056;-85
2023/08/18 03:36:53;;;;;;;20.27;14.07;;;;;;;16.34;100.00;101135.91;5057895;28;20048;-85
2023/08/18 03:39:20;;;;;;;25.75;15.73;;;;;;;16.34;100.00;101128.84;5037513;28;20309;-89
2023/08/18 03:41:47;;;;;;;24.85;13.05;;;;;;;16.33;100.00;101124.47;5063368;28;20044;-85
2023/08/18 03:44:14;;;;;;;18.33;13.75;;;;;;;16.36;100.00;101127.03;5047358;28;20045;-85
2023/08/18 03:46:43;;;;;;;21.63;14.48;;;;;;;16.35;100.00;101127.09;5051042;28;20135;-89
2023/08/18 03:49:10;;;;;;;16.30;12.15;;;;;;;16.36;100.00;101131.44;5039666;28;20329;-89
2023/08/18 03:51:38;;;;;;;17.25;11.80;;;;;;;16.35;100.00;101130.59;5056777;28;20393;-86
2023/08/18 03:54:05;;;;;;;20.02;12.98;;;;;;;16.36;100.00;101134.09;5044461;28;20056;-86
2023/08/18 03:56:33;;;;;;;19.15;11.80;;;;;;;16.36;100.00;101128.78;5061877;28;20431;-87
2023/08/18 03:59:03;;;;;;;14.80;10.52;;;;;;;16.39;100.00;101134.03;5048241;28;20453;-83
2023/08/18 04:01:32;;;;;;;13.15;10.60;;;;;;;16.39;100.00;101123.47;5064591;28;20392;-89
2023/08/18 04:04:00;;;;;;;12.32;10.00;;;;;;;16.39;100.00;101123.47;5062164;28;20064;-88
2023/08/18 04:06:27;;;;;;;11.80;10.27;;;;;;;16.38;100.00;101125.22;5054676;28;20057;-87
2023/08/18 04:09:08;;;;;;;11.27;8.43;;;;;;;16.41;100.00;101121.63;5045132;28;20052;-84
2023/08/18 04:11:36;;;;;;;12.60;10.40;;;;;;;16.40;100.00;101117.28;5057236;28;20049;-87
2023/08/18 04:14:04;;;;;;;14.43;10.45;;;;;;;16.42;100.00;101119.88;5064283;28;20513;-84
2023/08/18 04:16:34;;;;;;;12.43;9.90;;;;;;;16.43;100.00;101114.53;5053772;28;20040;-85
2023/08/18 04:19:04;;;;;;;14.02;10.63;;;;;;;16.46;100.00;101129.44;5045035;28;20385;-89
2023/08/18 04:21:34;;;;;;;13.40;9.70;;;;;;;16.47;100.00;101129.41;5042453;28;20047;-87
2023/08/18 04:24:04;;;;;;;10.70;8.73;;;;;;;16.51;100.00;101128.41;5059330;28;20587;-90
2023/08/18 04:26:31;;;;;;;10.93;9.05;;;;;;;16.52;100.00;101118.72;5076396;28;20051;-91
2023/08/18 04:29:02;;;;;;;15.65;10.27;;;;;;;16.52;100.00;101130.16;5047414;28;20468;-87
2023/08/18 04:31:41;;;;;;;18.30;12.80;;;;;;;16.51;100.00;101133.69;5045044;28;20051;-85
2023/08/18 04:34:14;;;;;;;13.48;10.70;;;;;;;16.48;100.00;101132.94;5057242;28;20055;-91
2023/08/18 04:36:42;;;;;;;17.90;12.82;;;;;;;16.48;100.00;101132.94;5062107;28;20057;-84
2023/08/18 04:39:11;;;;;;;19.52;13.05;;;;;;;16.50;100.00;101133.75;5055395;28;20033;-85
2023/08/18 04:41:40;;;;;;;15.32;12.35;;;;;;;16.51;100.00;101127.56;5058515;28;20040;-84
2023/08/18 04:44:07;;;;;;;21.38;14.52;;;;;;;16.50;100.00;101134.63;5054695;28;20124;-85
2023/08/18 04:46:33;;;;;;;16.58;12.90;;;;;;;16.50;100.00;101131.09;5045287;28;20304;-87
2023/08/18 04:49:01;;;;;;;18.77;13.95;;;;;;;16.52;100.00;101134.56;5053318;28;20051;-87
2023/08/18 04:51:28;;;;;;;15.70;13.15;;;;;;;16.57;100.00;101135.31;5068108;28;20044;-88
2023/08/18 04:53:55;;;;;;;17.30;14.52;;;;;;;16.62;100.00;101133.44;5036826;28;20048;-84
2023/08/18 04:56:22;;;;;;;22.63;15.50;;;;;;;16.65;100.00;101122.75;5038389;28;20052;-87
2023/08/18 04:58:48;;;;;;;23.95;14.68;;;;;;;16.70;100.00;101123.50;5057976;28;20119;-85
2023/08/18 05:01:15;;;;;;;15.45;11.93;;;;;;;16.74;100.00;101121.66;5046034;28;20143;-87
2023/08/18 05:03:42;;;;;;;19.25;14.68;;;;;;;16.79;100.00;101122.41;5056452;28;20049;-85
2023/08/18 05:06:12;;;;;;;23.50;13.27;;;;;;;16.85;100.00;101124.00;5070662;28;20045;-85
2023/08/18 05:08:40;;;;;;;15.45;11.95;;;;;;;16.87;100.00;101127.47;5046689;28;20044;-83
2023/08/18 05:11:13;;;;;;;17.92;13.95;;;;;;;16.89;100.00;101117.72;5050555;28;20501;-88
2023/08/18 05:13:42;;;;;;;22.63;13.63;;;;;;;16.90;100.00;101118.59;5047200;28;20075;-83
2023/08/18 05:16:10;;;;;;;16.88;14.18;;;;;;;16.94;100.00;101123.78;5044816;28;20041;-85
2023/08/18 05:18:37;;;;;;;18.67;13.40;;;;;;;16.93;100.00;101123.81;5062803;28;20559;-83
2023/08/18 05:21:04;;;;;;;17.33;12.77;;;;;;;16.91;100.00;101137.09;5058022;28;20581;-91
2023/08/18 05:23:31;;;;;;;14.32;11.45;;;;;;;16.93;100.00;101131.75;5058902;28;20110;-88
2023/08/18 05:25:59;;;;;;;16.83;12.93;;;;;;;16.96;100.00;101131.66;5056493;28;20172;-84
2023/08/18 05:28:28;;;;;;;19.35;12.85;;;;;;;17.00;100.00;101133.31;5064883;28;20033;-85
2023/08/18 05:30:55;;;;;;;15.00;10.50;;;;;;;17.02;100.00;101121.75;5065428;28;20487;-87
2023/08/18 05:33:22;;;;;;;17.08;13.68;;;;;;;17.06;100.00;101127.84;5075578;28;20465;-90
2023/08/18 05:35:49;;;;;;;18.05;12.40;;;;;;;17.06;100.00;101121.69;5045162;28;20454;-85
2023/08/18 05:38:16;;;;;;;20.65;12.20;;;;;;;17.05;100.00;101128.75;5044244;28;20049;-86
2023/08/18 05:40:50;;;;;;;14.80;12.27;;;;;;;17.05;100.00;101117.31;5059203;28;20040;-85
2023/08/18 05:43:18;;;;;;;12.40;10.98;;;;;;;17.08;100.00;101120.75;5062334;28;20044;-88
2023/08/18 05:45:49;;;;;;;15.77;12.18;;;;;;;17.10;100.00;101115.41;5045860;28;20137;-88
2023/08/18 05:48:15;;;;;;;11.73;9.70;;;;;;;17.15;100.00;101117.00;5049948;28;20067;-85
2023/08/18 05:50:42;;;;;;;13.40;11.75;;;;;;;17.19;100.00;101117.78;5055386;28;20050;-85
2023/08/18 05:53:09;;;;;;;13.13;10.93;;;;;;;17.27;100.00;101121.06;5063153;28;20089;-83
2023/08/18 05:55:35;;;;;;;15.30;11.45;;;;;;;17.32;100.00;101120.94;5067506;28;20135;-86
2023/08/18 05:58:04;;;;;;;19.20;12.55;;;;;;;17.35;100.00;101123.47;5054894;28;20055;-84
2023/08/18 06:00:31;;;;;;;17.58;12.93;;;;;;;17.39;100.00;101124.25;5051824;28;20473;-83
2023/08/18 06:02:58;;;;;;;15.35;11.18;;;;;;;17.38;100.00;101128.69;5047018;28;20057;-86
2023/08/18 06:05:27;;;;;;;16.65;10.10;;;;;;;17.47;100.00;101125.78;5056388;28;20048;-86
2023/08/18 06:07:54;;;;;;;16.48;11.75;;;;;;;17.56;100.00;101127.28;5080106;28;20072;-86
2023/08/18 06:10:21;;;;;;;15.68;12.65;;;;;;;17.62;100.00;101127.06;5060834;28;20552;-88
2023/08/18 06:12:48;;;;;;;15.35;12.80;;;;;;;17.66;100.00;101130.50;5057500;28;20118;-86
2023/08/18 06:15:18;;;;;;;14.70;11.70;;;;;;;17.74;100.00;101132.91;5064677;28;21453;-83
2023/08/18 06:17:45;;;;;;;13.68;10.43;;;;;;;17.84;100.00;101127.28;5062902;28;20044;-85
2023/08/18 06:20:12;;;;;;;16.83;11.35;;;;;;;17.92;100.00;101131.47;5071247;28;20108;-92
2023/08/18 06:22:39;;;;;;;20.02;11.00;;;;;;;18.04;100.00;101128.44;5083304;28;20055;-90
2023/08/18 06:25:08;;;;;;;15.57;10.30;;;;;;;18.15;100.00;101133.41;5081456;28;20083;-92
2023/08/18 06:27:36;;;;;;;15.68;10.93;;;;;;;18.27;100.00;101137.44;5083350;28;20058;-86
2023/08/18 06:30:06;;;;;;;13.57;11.02;;;;;;;18.32;100.00;101135.50;5083694;28;20127;-84
2023/08/18 06:32:33;;;;;;;15.10;10.57;;;;;;;18.44;100.00;101140.38;5061951;28;20131;-83
2023/08/18 06:35:00;;;;;;;17.13;12.30;;;;;;;18.45;100.00;101139.47;5052336;28;20113;-84
2023/08/18 06:37:27;;;;;;;15.43;10.00;;;;;;;18.48;100.00;101146.44;5065798;28;20567;-85
2023/08/18 06:39:54;;;;;;;17.08;12.15;;;;;;;18.54;100.00;101140.06;5078845;28;20488;-83
2023/08/18 06:42:20;;;;;;;16.90;12.60;;;;;;;18.46;100.00;101146.50;5066976;28;20041;-84
2023/08/18 06:44:47;;;;;;;12.38;10.85;;;;;;;18.41;100.00;101135.19;5070276;28;20037;-90
2023/08/18 06:47:13;;;;;;;13.38;10.00;;;;;;;18.54;100.00;101142.69;5060034;28;20051;-85
2023/08/18 06:49:40;;;;;;;14.88;10.35;;;;;;;18.75;100.00;101135.81;5076955;28;20642;-83
2023/08/18 06:52:06;;;;;;;12.45;10.18;;;;;;;18.95;100.00;101135.97;5059612;28;20628;-87
2023/08/18 06:54:34;;;;;;;11.82;10.52;;;;;;;19.09;100.00;101132.81;5046871;28;20040;-83
2023/08/18 06:57:01;;;;;;;13.52;11.07;;;;;;;19.25;100.00;101129.59;5066200;28;20082;-83
2023/08/18 06:59:27;;;;;;;15.57;10.48;;;;;;;19.41;100.00;101130.75;5049992;28;20056;-84
2023/08/18 07:01:55;;;;;;;15.88;11.20;;;;;;;19.60;100.00;101133.53;5052598;28;20094;-86
2023/08/18 07:04:22;;;;;;;44.92;11.90;;;;;;;19.78;100.00;101120.47;5058151;28;20071;-87
2023/08/18 07:06:48;;;;;;;15.73;10.15;;;;;;;20.04;100.00;101129.19;5047078;28;20059;-84
2023/08/18 07:09:15;;;;;;;11.88;9.40;;;;;;;20.33;100.00;101134.16;5066499;28;20041;-85
2023/08/18 07:11:42;;;;;;;8.50;7.70;;;;;;;20.69;100.00;101129.13;5029605;28;20399;-83
2023/08/18 07:14:09;;;;;;;11.75;7.93;;;;;;;21.12;100.00;101124.59;5058856;28;20045;-85
2023/08/18 07:16:36;;;;;;;9.95;8.43;;;;;;;21.48;100.00;101137.13;5063084;28;20051;-85
2023/08/18 07:19:03;;;;;;;9.68;7.18;;;;;;;21.60;100.00;101131.25;5044724;28;20674;-85
2023/08/18 07:21:30;;;;;;;10.13;8.95;;;;;;;21.79;100.00;101135.69;5049163;28;20090;-84
2023/08/18 07:23:56;;;;;;;9.13;7.85;;;;;;;21.77;99.69;101141.09;5065568;28;20613;-84
2023/08/18 07:26:23;;;;;;;8.55;7.60;;;;;;;21.92;97.77;101133.28;5073251;28;20072;-83
2023/08/18 07:28:50;;;;;;;7.43;6.57;;;;;;;22.22;98.63;101130.03;5047933;28;20102;-83
2023/08/18 07:31:17;;;;;;;9.38;8.20;;;;;;;22.38;96.04;101141.69;5081083;28;20499;-83
2023/08/18 07:33:45;;;;;;;8.35;7.05;;;;;;;22.19;95.76;101136.41;5065951;28;20040;-84
2023/08/18 07:36:11;;;;;;;8.38;7.13;;;;;;;21.94;96.53;101139.41;5066150;28;20593;-85
2023/08/18 07:38:38;;;;;;;8.40;7.60;;;;;;;21.58;98.17;101138.44;5067582;28;20048;-86
2023/08/18 07:41:05;;;;;;;9.23;8.18;;;;;;;21.70;98.48;101134.31;5044413;28;20496;-83
2023/08/18 07:43:32;;;;;;;8.10;7.30;;;;;;;21.82;97.59;101138.19;5048240;28;20060;-84
2023/08/18 07:46:00;;;;;;;9.95;7.97;;;;;;;21.85;97.09;101140.72;5051326;28;20044;-85
2023/08/18 07:48:27;;;;;;;7.70;6.53;;;;;;;21.94;97.46;101137.63;5064187;28;20055;-83
2023/08/18 07:50:53;;;;;;;8.88;7.53;;;;;;;22.14;96.38;101135.75;5059793;28;20036;-82
2023/08/18 07:53:20;;;;;;;8.07;7.18;;;;;;;22.47;95.35;101129.69;5063430;28;20115;-85
2023/08/18 07:55:47;;;;;;;9.05;6.72;;;;;;;22.77;93.72;101127.22;5063877;28;20064;-87
2023/08/18 07:58:13;;;;;;;9.18;7.47;;;;;;;22.98;91.82;101134.19;5040100;28;20052;-85
2023/08/18 08:00:40;;;;;;;10.15;8.25;;;;;;;23.18;90.02;101138.47;5065899;28;20618;-89
2023/08/18 08:03:06;;;;;;;8.00;6.30;;;;;;;23.41;89.87;101129.19;5066141;28;20574;-86
2023/08/18 08:05:35;;;;;;;7.30;6.60;;;;;;;23.66;88.13;101130.50;5044210;28;20044;-88
2023/08/18 08:08:03;;;;;;;8.88;8.07;;;;;;;23.77;87.63;101138.78;5058634;28;20152;-89
2023/08/18 08:10:30;;;;;;;6.90;6.18;;;;;;;24.10;87.57;101138.66;5053724;28;20051;-84
2023/08/18 08:12:57;;;;;;;7.03;6.35;;;;;;;24.59;85.49;101139.38;5055342;28;20053;-83
2023/08/18 08:15:24;;;;;;;5.63;5.13;;;;;;;24.89;83.86;101138.50;5073743;28;20094;-85
2023/08/18 08:17:53;;;;;;;7.82;7.13;;;;;;;24.94;81.19;101133.72;5069129;28;20052;-85
2023/08/18 08:20:20;;;;;;;8.35;7.00;;;;;;;24.79;82.50;101132.84;5065757;28;20052;-90
2023/08/18 08:22:51;;;;;;;9.50;7.05;;;;;;;24.98;80.94;101139.72;5076313;28;20178;-82
2023/08/18 08:25:18;;;;;;;8.25;7.45;;;;;;;25.69;79.21;101138.81;5070296;28;20060;-84
2023/08/18 08:27:45;;;;;;;7.50;6.90;;;;;;;26.04;76.66;101132.97;5081199;28;20470;-83
2023/08/18 08:30:14;;;;;;;7.70;7.07;;;;;;;26.32;74.43;101132.94;5067173;28;20052;-86
2023/08/18 08:32:41;;;;;;;8.27;7.10;;;;;;;26.89;73.18;101140.66;5063289;28;20037;-84
2023/08/18 08:35:08;;;;;;;8.80;7.78;;;;;;;27.41;67.24;101132.56;5051590;28;20057;-85
2023/08/18 08:37:35;;;;;;;7.47;6.53;;;;;;;27.85;67.01;101143.72;5059760;28;20504;-84
2023/08/18 08:40:01;;;;;;;7.32;6.72;;;;;;;28.04;65.36;101140.50;5051164;28;20051;-81
2023/08/18 08:42:28;;;;;;;7.03;6.43;;;;;;;28.18;64.18;101140.31;5065193;28;20044;-89
2023/08/18 08:44:54;;;;;;;9.15;7.18;;;;;;;28.42;62.22;101141.25;5058258;28;20128;-82
2023/08/18 08:47:21;;;;;;;6.80;6.20;;;;;;;28.44;63.20;101142.88;5071453;28;20043;-82
2023/08/18 08:50:01;;;;;;;8.50;7.80;;;;;;;28.95;61.07;101140.78;5071040;28;20045;-83
2023/08/18 08:52:32;;;;;;;9.18;7.43;;;;;;;29.75;58.04;101142.44;5065826;28;20507;-81
2023/08/18 08:55:02;;;;;;;8.75;6.00;;;;;;;30.23;58.12;101137.63;5065046;28;20037;-84
2023/08/18 08:57:31;;;;;;;11.10;6.78;;;;;;;30.65;55.74;101140.34;5053047;28;20037;-84
2023/08/18 08:59:58;;;;;;;6.90;6.40;;;;;;;30.98;55.20;101128.44;5037831;28;20077;-83
2023/08/18 09:02:24;;;;;;;7.63;6.97;;;;;;;31.56;51.81;101140.44;5066882;28;20045;-84
2023/08/18 09:04:51;;;;;;;8.07;6.78;;;;;;;31.73;51.86;101138.94;5077486;28;20491;-83
2023/08/18 09:07:18;;;;;;;8.13;7.05;;;;;;;31.76;49.78;101129.69;5067421;28;20507;-82
2023/08/18 09:09:45;;;;;;;7.28;6.60;;;;;;;31.82;51.23;101121.00;5055775;28;20062;-89
2023/08/18 09:12:12;;;;;;;11.93;6.85;;;;;;;31.83;51.31;101115.44;5055016;28;20053;-88
2023/08/18 09:14:43;;;;;;;6.22;5.80;;;;;;;31.78;50.99;101114.16;5051745;28;20091;-83
2023/08/18 09:17:10;;;;;;;7.20;6.50;;;;;;;31.88;48.63;101112.31;5049372;28;20049;-84
2023/08/18 09:19:37;;;;;;;6.55;6.05;;;;;;;31.56;51.41;101113.38;5055729;28;20404;-83
2023/08/18 09:22:04;;;;;;;5.30;4.90;;;;;;;32.62;49.06;101107.25;5067735;28;20051;-86
2023/08/18 09:24:33;;;;;;;7.78;6.25;;;;;;;33.51;45.73;101096.91;5048053;28;20132;-85
2023/08/18 09:27:11;;;;;;;6.95;6.25;;;;;;;33.82;43.74;101088.41;5062895;28;20041;-81
2023/08/18 09:29:38;;;;;;;6.07;5.57;;;;;;;34.13;44.59;101091.53;5043068;28;20052;-82
2023/08/18 09:32:04;;;;;;;5.50;5.10;;;;;;;34.59;43.22;101081.38;5059197;28;20056;-81
2023/08/18 09:34:32;;;;;;;7.32;6.63;;;;;;;34.45;43.34;101082.78;5007006;22;1111250;-81
2023/08/18 09:36:58;;;;;;;6.88;5.95;;;;;;;34.59;43.08;101080.53;5009047;28;20050;-86
2023/08/18 09:39:26;;;;;;;7.13;6.47;;;;;;;34.59;42.28;101077.81;4999853;28;20041;-88
2023/08/18 09:41:55;;;;;;;8.70;7.93;;;;;;;34.44;42.84;101080.25;4971956;28;20039;-84
2023/08/18 09:44:24;;;;;;;10.07;7.72;;;;;;;34.29;42.44;101071.81;4975938;28;20035;-84
2023/08/18 09:46:56;;;;;;;9.88;8.70;;;;;;;34.45;42.79;101074.66;4996383;28;20047;-87
2023/08/18 09:49:24;;;;;;;10.95;9.95;;;;;;;34.67;42.88;101075.13;5000936;28;20085;-83
2023/08/18 09:52:05;;;;;;;11.32;10.38;;;;;;;35.41;40.00;101069.13;5000893;28;20081;-85
2023/08/18 09:54:49;;;;;;;12.20;11.00;;;;;;;34.88;40.92;101073.88;5000973;28;20096;-88
2023/08/18 09:57:31;;;;;;;12.60;11.32;;;;;;;34.93;40.97;101063.38;5004081;28;20121;-92
2023/08/18 10:00:00;;;;;;;10.38;9.48;;;;;;;35.39;41.40;101065.75;4997914;28;20046;-83
2023/08/18 10:02:34;;;;;;;11.48;10.50;;;;;;;35.11;40.74;101063.28;4977886;28;20100;-81
2023/08/18 10:05:05;;;;;;;12.32;11.30;;;;;;;35.07;41.90;101059.16;4994776;28;20042;-81
2023/08/18 10:07:35;;;;;;;11.25;10.32;;;;;;;35.70;41.07;101051.50;4978944;28;20089;-81
2023/08/18 10:10:03;;;;;;;11.20;10.20;;;;;;;36.17;39.85;101053.53;4989104;28;20043;-84
2023/08/18 10:12:30;;;;;;;11.55;10.07;;;;;;;36.09;39.50;101053.53;5001635;28;20026;-88
2023/08/18 10:14:57;;;;;;;13.43;11.63;;;;;;;35.89;39.30;101055.75;5015883;28;20034;-87
2023/08/18 10:17:25;;;;;;;13.48;11.05;;;;;;;36.13;39.57;101051.31;5001927;28;20042;-84
2023/08/18 10:19:55;;;;;;;10.73;9.70;;;;;;;37.16;38.03;101042.31;4998079;28;20053;-84
2023/08/18 10:22:25;;;;;;;12.07;11.13;;;;;;;37.80;36.88;101043.94;4994200;28;20077;-83
2023/08/18 10:24:53;;;;;;;11.77;10.80;;;;;;;36.73;38.28;101045.38;4999330;28;20047;-83
2023/08/18 10:27:31;;;;;;;11.02;9.77;;;;;;;37.16;37.63;101042.31;5001370;28;20036;-84
2023/08/18 10:30:04;;;;;;;10.35;9.48;;;;;;;37.79;36.37;101033.22;4997400;28;20039;-82
2023/08/18 10:32:31;;;;;;;10.27;9.48;;;;;;;37.49;37.63;101046.72;5012489;28;20050;-85
2023/08/18 10:35:30;;;;;;;11.40;10.40;;;;;;;38.41;34.93;101037.56;4993378;28;20058;-81
2023/08/18 10:38:04;;;;;;;12.45;11.45;;;;;;;38.62;34.22;101049.59;4982300;28;20046;-83
2023/08/18 10:40:34;;;;;;;12.27;11.10;;;;;;;38.36;34.97;101034.56;4992251;28;20046;-82
2023/08/18 10:43:06;;;;;;;12.32;11.23;;;;;;;38.79;34.49;101032.00;4957037;28;20050;-82
2023/08/18 10:45:33;;;;;;;11.10;10.00;;;;;;;39.75;32.88;101038.31;4975795;28;20043;-81
2023/08/18 10:48:04;;;;;;;10.40;9.50;;;;;;;39.78;33.27;101032.41;4977891;28;20038;-82
2023/08/18 10:50:37;;;;;;;11.57;10.57;;;;;;;39.66;33.54;101035.72;4973658;28;20035;-82
2023/08/18 10:53:04;;;;;;;10.75;9.82;;;;;;;39.49;33.90;101032.38;4965808;28;20050;-84
2023/08/18 10:55:31;;;;;;;11.95;10.85;;;;;;;39.38;34.10;101025.50;4973801;28;20049;-81
2023/08/18 10:57:59;;;;;;;11.02;10.13;;;;;;;39.32;33.98;101025.44;4970973;28;20054;-83
2023/08/18 11:00:25;;;;;;;11.73;10.73;;;;;;;39.66;32.38;101027.50;4973555;28;20054;-82
2023/08/18 11:02:52;;;;;;;11.07;10.18;;;;;;;39.70;33.61;101027.97;4970117;28;20475;-81
2023/08/18 11:05:22;;;;;;;12.45;9.55;;;;;;;40.02;32.89;101022.91;4981289;28;20099;-81
2023/08/18 11:07:51;;;;;;;11.35;10.45;;;;;;;40.41;32.57;101024.25;4971663;28;20051;-80
2023/08/18 11:10:20;;;;;;;10.73;9.75;;;;;;;40.77;32.17;101019.56;4971427;28;20050;-91
2023/08/18 11:12:49;;;;;;;12.05;10.98;;;;;;;40.25;31.70;101013.59;4970915;28;20043;-82
2023/08/18 11:15:19;;;;;;;10.20;9.30;;;;;;;39.18;33.39;101011.63;4989638;28;20050;-82